Time;durP1;ratioP1;P1;durP2;ratioP2;P2;SDS_P1;SDS_P2;PMS_P1;PMS_P2;Temp;Humidity;BMP_temperature;BMP_pressure;BME280_temperature;BME280_humidity;BME280_pressure;Samples;Min_cycle;Max_cycle;Signal;HPM_P1;HPM_P2
2021/06/10 04:29:36;;;;;;;12.90;6.75;;;;;;;15.16;65.36;100388.56;5145624;27;20331;-71
2021/06/10 04:32:02;;;;;;;9.20;6.47;;;;;;;15.34;65.21;100390.78;5146843;27;20027;-70
2021/06/10 04:34:27;;;;;;;14.77;7.53;;;;;;;15.56;65.55;100389.66;5152320;27;20471;-74
2021/06/10 04:36:53;;;;;;;13.65;7.07;;;;;;;15.78;65.35;100394.13;5150279;27;21730;-73
2021/06/10 04:39:18;;;;;;;10.63;6.55;;;;;;;16.01;65.31;100393.84;5152276;27;20479;-74
2021/06/10 04:41:44;;;;;;;10.70;6.95;;;;;;;16.20;64.96;100395.75;5149856;27;30682;-73
2021/06/10 04:44:09;;;;;;;10.40;6.53;;;;;;;16.35;64.69;100386.72;5151540;27;20031;-75
2021/06/10 04:46:35;;;;;;;11.65;6.18;;;;;;;16.49;64.86;100377.63;5150156;27;20038;-75
2021/06/10 04:49:01;;;;;;;11.23;6.75;;;;;;;16.65;64.68;100370.19;5132709;27;20111;-74
2021/06/10 04:51:26;;;;;;;9.40;6.22;;;;;;;16.80;64.11;100364.59;5115793;27;20055;-75
2021/06/10 04:53:53;;;;;;;11.93;6.00;;;;;;;16.94;63.88;100362.78;5151314;27;20039;-75
2021/06/10 04:56:20;;;;;;;9.15;6.32;;;;;;;17.06;64.14;100367.31;5151154;27;20391;-75
2021/06/10 04:58:45;;;;;;;8.95;5.85;;;;;;;17.21;63.78;100371.66;5134018;27;20019;-75
2021/06/10 05:01:11;;;;;;;8.13;5.57;;;;;;;17.31;63.19;100366.66;5152079;27;23302;-77
2021/06/10 05:03:36;;;;;;;7.93;5.50;;;;;;;17.46;63.35;100365.59;5138851;27;23979;-71
2021/06/10 05:06:02;;;;;;;11.77;6.10;;;;;;;17.61;63.35;100374.25;5112561;27;39756;-71
2021/06/10 05:08:27;;;;;;;7.63;5.47;;;;;;;17.78;63.30;100379.97;5132181;27;20028;-69
2021/06/10 05:10:53;;;;;;;9.70;5.43;;;;;;;17.94;62.96;100384.09;5131867;27;20054;-69
2021/06/10 05:13:18;;;;;;;8.90;5.55;;;;;;;18.10;62.56;100383.59;5131475;27;20329;-70
2021/06/10 05:15:44;;;;;;;10.32;6.10;;;;;;;18.26;62.42;100376.03;5131843;27;20028;-70
2021/06/10 05:18:09;;;;;;;10.88;5.88;;;;;;;18.41;62.32;100381.13;5132230;27;20032;-70
2021/06/10 05:20:35;;;;;;;8.75;5.43;;;;;;;18.50;61.19;100377.16;5131770;27;20529;-71
2021/06/10 05:23:00;;;;;;;9.48;5.35;;;;;;;18.57;61.37;100386.00;5131900;27;20028;-71
2021/06/10 05:25:25;;;;;;;10.57;5.05;;;;;;;18.68;61.28;100379.09;5131946;27;20480;-72
2021/06/10 05:27:51;;;;;;;12.25;5.60;;;;;;;18.81;61.12;100383.56;5130741;27;30196;-72
2021/06/10 05:30:17;;;;;;;8.30;5.32;;;;;;;18.86;60.52;100383.75;5131935;27;20031;-69
2021/06/10 05:32:42;;;;;;;7.47;5.35;;;;;;;18.95;60.38;100384.31;5129851;27;20452;-70
2021/06/10 05:35:08;;;;;;;7.43;4.75;;;;;;;19.00;59.40;100379.09;5130563;27;20028;-71
2021/06/10 05:37:33;;;;;;;6.15;4.75;;;;;;;19.04;59.45;100376.75;5131430;27;20019;-72
2021/06/10 05:39:58;;;;;;;7.40;5.00;;;;;;;19.09;58.90;100377.72;5123902;27;20039;-71
2021/06/10 05:42:24;;;;;;;9.95;5.70;;;;;;;19.21;59.40;100377.03;5117064;28;37420;-71
2021/06/10 05:44:49;;;;;;;9.95;4.80;;;;;;;19.33;59.14;100375.22;5116352;28;22211;-69
2021/06/10 05:47:14;;;;;;;6.90;4.22;;;;;;;19.48;58.76;100380.28;5114887;27;37846;-71
2021/06/10 05:49:40;;;;;;;8.13;4.63;;;;;;;19.58;58.60;100377.84;5116698;28;28751;-73
2021/06/10 05:52:06;;;;;;;9.75;5.00;;;;;;;19.71;58.13;100373.34;5116156;28;20032;-72
2021/06/10 05:54:31;;;;;;;7.50;4.30;;;;;;;19.88;58.51;100371.72;5116218;28;20086;-72
2021/06/10 05:56:58;;;;;;;7.57;4.53;;;;;;;20.00;57.76;100373.63;5117133;28;24171;-73
2021/06/10 05:59:23;;;;;;;10.60;4.70;;;;;;;20.01;57.28;100364.47;5116015;28;21081;-73
2021/06/10 06:01:49;;;;;;;9.70;4.47;;;;;;;20.12;57.19;100366.44;5115258;27;20036;-72
2021/06/10 06:04:14;;;;;;;9.27;4.47;;;;;;;20.22;57.14;100372.09;5116620;27;31099;-72
2021/06/10 06:06:40;;;;;;;5.95;3.60;;;;;;;20.38;57.16;100372.47;5116804;28;33233;-72
2021/06/10 06:09:08;;;;;;;7.28;3.85;;;;;;;20.41;55.94;100364.75;5117085;28;20087;-71
2021/06/10 06:11:34;;;;;;;9.35;4.38;;;;;;;20.47;56.21;100365.69;5115480;28;20035;-71
2021/06/10 06:14:09;;;;;;;7.93;3.70;;;;;;;20.51;55.29;100364.16;5098497;28;20024;-71
2021/06/10 06:16:42;;;;;;;11.32;4.55;;;;;;;20.48;54.87;100361.94;5116853;28;20814;-69
2021/06/10 06:19:08;;;;;;;6.40;3.50;;;;;;;20.61;54.79;100359.03;5115538;28;20123;-69
2021/06/10 06:21:34;;;;;;;6.63;3.22;;;;;;;20.72;54.62;100362.00;5116927;28;20028;-70
2021/06/10 06:24:00;;;;;;;11.43;3.90;;;;;;;20.78;54.18;100361.09;5116682;28;20497;-71
2021/06/10 06:26:25;;;;;;;4.68;3.42;;;;;;;20.88;53.73;100364.03;5117446;28;20104;-68
2021/06/10 06:28:53;;;;;;;5.22;3.42;;;;;;;21.02;54.55;100358.38;5117120;28;20101;-69
2021/06/10 06:31:19;;;;;;;5.75;3.20;;;;;;;21.29;54.86;100359.53;5117035;28;20058;-70
2021/06/10 06:33:44;;;;;;;4.85;3.25;;;;;;;21.46;53.51;100364.25;5114839;27;39941;-71
2021/06/10 06:36:09;;;;;;;5.28;3.28;;;;;;;21.54;52.97;100360.34;5116212;28;34348;-72
2021/06/10 06:38:35;;;;;;;6.65;3.30;;;;;;;21.67;53.03;100364.72;5115414;28;24289;-71
2021/06/10 06:41:00;;;;;;;7.78;3.47;;;;;;;21.82;53.34;100356.88;5116838;28;20032;-69
2021/06/10 06:43:30;;;;;;;7.78;3.70;;;;;;;22.09;53.26;100361.72;5116572;28;25615;-70
2021/06/10 06:45:55;;;;;;;8.27;4.85;;;;;;;22.25;52.00;100355.53;5115504;27;20028;-69
2021/06/10 06:48:21;;;;;;;7.00;2.97;;;;;;;22.31;51.32;100365.38;5116544;28;20028;-71
2021/06/10 06:50:46;;;;;;;5.40;3.13;;;;;;;22.42;51.29;100365.63;5114744;27;20085;-71
2021/06/10 06:53:12;;;;;;;5.72;3.42;;;;;;;22.45;51.10;100360.50;5116255;28;20415;-74
2021/06/10 06:55:37;;;;;;;6.65;3.00;;;;;;;22.63;50.99;100362.16;5115890;28;24280;-72
2021/06/10 06:58:02;;;;;;;6.18;3.08;;;;;;;22.85;51.18;100364.13;5115640;28;33094;-72
2021/06/10 07:00:29;;;;;;;8.07;3.35;;;;;;;22.97;49.33;100364.84;5114502;28;33964;-70
2021/06/10 07:02:54;;;;;;;4.72;2.80;;;;;;;23.06;49.53;100364.44;5116436;27;20028;-72
2021/06/10 07:05:19;;;;;;;5.65;2.80;;;;;;;23.22;49.92;100362.81;5114254;27;38012;-70
2021/06/10 07:07:45;;;;;;;7.18;2.78;;;;;;;23.43;49.96;100359.28;5124152;27;26589;-70
2021/06/10 07:10:11;;;;;;;6.93;2.40;;;;;;;23.64;48.72;100365.00;5090618;27;21246;-72
2021/06/10 07:12:36;;;;;;;9.13;3.13;;;;;;;23.53;47.92;100369.47;5091500;28;20025;-71
2021/06/10 07:15:03;;;;;;;11.57;3.40;;;;;;;23.51;47.13;100359.94;5075195;28;27258;-70
2021/06/10 07:17:30;;;;;;;8.32;4.38;;;;;;;23.43;47.53;100358.47;5075098;28;20465;-67
2021/06/10 07:20:00;;;;;;;7.43;3.38;;;;;;;23.49;47.07;100363.72;5075455;28;20028;-72
2021/06/10 07:22:25;;;;;;;6.47;3.33;;;;;;;23.56;46.84;100358.09;5093980;28;20037;-66
2021/06/10 07:24:51;;;;;;;5.75;3.20;;;;;;;23.71;47.50;100365.63;5088198;28;24006;-67
2021/06/10 07:27:17;;;;;;;8.65;4.90;;;;;;;24.13;48.30;100370.47;5093384;28;20032;-68
2021/06/10 07:29:42;;;;;;;7.95;3.42;;;;;;;24.72;48.85;100373.50;5089773;28;20040;-71
2021/06/10 07:32:08;;;;;;;5.57;3.10;;;;;;;25.27;48.13;100364.03;5083509;28;20424;-71
2021/06/10 07:34:34;;;;;;;6.95;3.42;;;;;;;25.76;46.85;100370.31;5086872;28;20162;-69
2021/06/10 07:36:59;;;;;;;6.43;2.92;;;;;;;25.95;45.58;100374.19;5094157;28;20024;-68
2021/06/10 07:39:25;;;;;;;5.82;2.47;;;;;;;26.34;46.88;100370.19;5093563;28;20138;-69
2021/06/10 07:41:50;;;;;;;4.00;2.40;;;;;;;26.84;45.27;100376.78;5092864;28;35264;-69
2021/06/10 07:44:15;;;;;;;4.07;2.20;;;;;;;27.06;45.07;100372.13;5089186;28;37122;-69
2021/06/10 07:46:41;;;;;;;9.68;2.67;;;;;;;27.31;44.61;100382.16;5082652;28;20021;-68
2021/06/10 07:49:06;;;;;;;6.95;2.00;;;;;;;27.64;44.26;100388.09;5081407;28;33790;-74
2021/06/10 07:51:32;;;;;;;2.75;1.80;;;;;;;27.60;41.66;100385.13;5064706;28;30464;-69
2021/06/10 07:53:57;;;;;;;5.47;1.88;;;;;;;27.49;40.56;100389.81;5082144;28;20025;-72
2021/06/10 07:56:23;;;;;;;4.05;1.85;;;;;;;27.28;40.91;100397.22;5087410;28;31395;-70
2021/06/10 07:58:48;;;;;;;4.97;2.30;;;;;;;27.13;40.21;100406.28;5092942;28;20086;-69
2021/06/10 08:01:13;;;;;;;11.10;2.53;;;;;;;26.80;39.52;100413.13;5092500;28;39528;-67
2021/06/10 08:03:39;;;;;;;7.75;2.35;;;;;;;26.51;39.72;100408.19;5092123;28;31977;-68
2021/06/10 08:06:06;;;;;;;8.30;2.28;;;;;;;26.33;39.63;100407.59;5075525;28;20051;-69
2021/06/10 08:08:31;;;;;;;7.82;2.00;;;;;;;26.34;39.90;100405.69;5084536;28;20044;-77
2021/06/10 08:11:00;;;;;;;6.15;2.25;;;;;;;26.39;39.81;100410.34;5074548;28;29822;-69
2021/06/10 08:13:26;;;;;;;4.68;2.35;;;;;;;26.37;39.57;100405.16;5072874;28;20025;-70
2021/06/10 08:15:51;;;;;;;7.00;2.78;;;;;;;26.29;38.90;100428.34;5072500;28;30574;-71
2021/06/10 08:18:19;;;;;;;8.45;2.80;;;;;;;26.25;38.85;100432.72;5073016;28;20021;-73
2021/06/10 08:20:45;;;;;;;7.22;3.65;;;;;;;26.15;39.29;100438.16;5072435;28;20480;-72
2021/06/10 08:23:10;;;;;;;10.13;4.63;;;;;;;25.92;38.07;100440.22;5072861;28;20021;-71
2021/06/10 08:25:42;;;;;;;8.88;4.88;;;;;;;25.58;38.02;100445.25;5073310;28;20032;-72
2021/06/10 08:28:08;;;;;;;9.30;5.53;;;;;;;25.29;38.78;100451.84;5072620;28;20041;-69
2021/06/10 08:30:33;;;;;;;10.45;4.75;;;;;;;24.98;38.60;100456.25;5071564;28;38717;-71
2021/06/10 08:32:58;;;;;;;10.25;5.35;;;;;;;24.67;38.44;100462.25;5078009;28;39555;-69
2021/06/10 08:35:24;;;;;;;9.57;5.68;;;;;;;24.49;38.94;100459.84;5073632;28;28414;-70
2021/06/10 08:37:49;;;;;;;10.35;5.32;;;;;;;24.20;39.10;100460.09;5072033;28;20041;-71
2021/06/10 08:40:15;;;;;;;14.20;6.10;;;;;;;23.95;39.47;100464.16;5071861;28;28949;-73
2021/06/10 08:42:44;;;;;;;11.88;4.78;;;;;;;23.75;39.64;100461.13;5088193;28;20374;-70
2021/06/10 08:45:11;;;;;;;8.98;5.22;;;;;;;23.51;39.63;100466.81;5091453;28;20861;-73
2021/06/10 08:47:37;;;;;;;10.20;5.93;;;;;;;23.20;40.08;100457.34;5093473;28;20025;-71
2021/06/10 08:50:04;;;;;;;14.65;5.32;;;;;;;23.01;40.56;100467.63;5093481;28;20771;-74
2021/06/10 08:52:31;;;;;;;8.27;5.03;;;;;;;22.88;41.09;100466.88;5093688;28;20025;-69
2021/06/10 08:54:57;;;;;;;14.10;5.80;;;;;;;22.79;41.21;100466.44;5092888;28;20533;-71
2021/06/10 08:57:22;;;;;;;12.05;5.68;;;;;;;22.77;42.02;100467.75;5091181;28;37016;-69
2021/06/10 08:59:48;;;;;;;10.77;5.45;;;;;;;22.81;42.45;100460.75;5092737;28;20060;-69
2021/06/10 09:02:13;;;;;;;13.50;5.40;;;;;;;22.77;42.43;100460.44;5092187;28;20085;-69
2021/06/10 09:04:39;;;;;;;9.32;5.50;;;;;;;22.71;42.66;100469.53;5092005;28;30968;-69
2021/06/10 09:07:04;;;;;;;7.43;4.95;;;;;;;22.75;43.27;100464.47;5091495;28;35437;-68
2021/06/10 09:09:35;;;;;;;8.63;5.07;;;;;;;22.90;43.75;100469.34;5093702;28;20025;-71
2021/06/10 09:12:05;;;;;;;5.18;4.13;;;;;;;23.11;43.92;100476.75;5093010;28;20035;-69
2021/06/10 09:14:30;;;;;;;11.18;4.72;;;;;;;23.31;44.21;100484.44;5094683;28;20052;-70
2021/06/10 09:16:56;;;;;;;9.32;3.90;;;;;;;23.56;44.55;100482.34;5097488;28;20534;-70
2021/06/10 09:19:21;;;;;;;7.75;4.20;;;;;;;23.63;43.55;100488.44;5097025;28;31152;-70
2021/06/10 09:21:53;;;;;;;10.13;4.13;;;;;;;23.56;43.59;100490.50;5095534;28;36643;-71
2021/06/10 09:24:18;;;;;;;9.40;4.13;;;;;;;23.58;43.88;100491.06;5097903;28;20025;-69
2021/06/10 09:26:45;;;;;;;9.55;4.45;;;;;;;23.65;43.86;100489.81;5097322;28;20032;-70
2021/06/10 09:29:10;;;;;;;6.95;4.10;;;;;;;23.81;44.62;100496.31;5096895;28;20143;-70
2021/06/10 09:31:36;;;;;;;11.05;4.30;;;;;;;24.08;44.97;100489.34;5097406;28;20135;-71
2021/06/10 09:34:12;;;;;;;7.65;4.00;;;;;;;24.24;44.41;100496.59;5097324;28;20437;-71
2021/06/10 09:36:46;;;;;;;4.53;3.55;;;;;;;24.43;44.35;100496.28;5097423;28;20028;-70
2021/06/10 09:39:14;;;;;;;9.23;4.13;;;;;;;24.42;43.68;100500.88;5096750;28;20796;-71
2021/06/10 09:42:05;;;;;;;6.80;3.28;;;;;;;24.32;43.28;100496.16;5095726;28;20032;-70
2021/06/10 09:44:54;;;;;;;5.32;3.42;;;;;;;24.04;42.37;100480.84;5096815;28;20033;-70
2021/06/10 09:47:26;;;;;;;4.95;3.15;;;;;;;23.72;42.15;100475.25;5097053;28;20472;-71
2021/06/10 09:49:52;;;;;;;8.77;3.65;;;;;;;23.36;42.48;100461.13;5095382;28;20531;-68
2021/06/10 09:52:17;;;;;;;4.93;3.83;;;;;;;23.10;42.55;100452.53;5096189;28;34332;-67
2021/06/10 09:54:45;;;;;;;4.28;2.92;;;;;;;22.81;42.67;100449.88;5096034;28;30792;-72
2021/06/10 09:57:14;;;;;;;6.90;3.72;;;;;;;22.53;43.37;100450.75;5061441;28;20479;-73
2021/06/10 09:59:47;;;;;;;5.10;3.43;;;;;;;22.40;44.00;100454.59;5096064;28;20036;-71
2021/06/10 10:02:26;;;;;;;6.68;3.30;;;;;;;22.38;44.40;100451.31;5095394;28;20272;-74
2021/06/10 10:05:06;;;;;;;5.82;3.72;;;;;;;22.27;44.29;100448.34;5097509;28;20081;-71
2021/06/10 10:07:36;;;;;;;9.77;3.67;;;;;;;22.08;44.06;100442.28;5096982;28;20056;-71
2021/06/10 10:10:03;;;;;;;5.00;3.20;;;;;;;21.96;44.78;100441.50;5078950;28;20036;-70
2021/06/10 10:12:29;;;;;;;4.75;3.00;;;;;;;21.86;45.05;100444.00;5096675;28;20033;-71
2021/06/10 10:14:55;;;;;;;5.40;3.33;;;;;;;21.78;45.48;100443.28;5096450;28;20500;-72
2021/06/10 10:17:21;;;;;;;3.80;2.97;;;;;;;21.72;45.55;100441.53;5096661;28;20032;-72
2021/06/10 10:19:46;;;;;;;7.22;3.22;;;;;;;21.64;45.84;100448.16;5096513;28;20800;-72
2021/06/10 10:22:13;;;;;;;4.22;3.38;;;;;;;21.62;46.42;100450.28;5095979;28;32079;-75
2021/06/10 10:24:38;;;;;;;4.00;3.10;;;;;;;21.60;46.44;100468.66;5095614;28;20032;-72
2021/06/10 10:27:05;;;;;;;4.63;3.20;;;;;;;21.49;46.62;100466.75;5078238;28;20029;-72
2021/06/10 10:29:31;;;;;;;4.88;3.25;;;;;;;21.44;47.22;100464.72;5095958;28;20118;-70
2021/06/10 10:31:57;;;;;;;11.73;3.22;;;;;;;21.47;47.66;100458.03;5095312;28;20122;-70
2021/06/10 10:34:23;;;;;;;7.43;3.33;;;;;;;21.47;47.83;100452.59;5095478;28;20032;-71
2021/06/10 10:36:49;;;;;;;9.82;3.35;;;;;;;21.46;47.67;100453.69;5095239;28;20055;-70
2021/06/10 10:39:14;;;;;;;4.70;3.20;;;;;;;21.45;48.18;100458.25;5095516;28;20028;-70
2021/06/10 10:41:53;;;;;;;6.13;3.40;;;;;;;21.44;48.28;100443.06;5095870;28;27017;-71
2021/06/10 10:44:23;;;;;;;4.70;2.90;;;;;;;21.48;48.90;100443.41;5096416;28;20028;-72
2021/06/10 10:47:11;;;;;;;4.82;2.92;;;;;;;21.78;50.00;100437.88;5094873;28;20475;-70
2021/06/10 10:49:51;;;;;;;4.68;2.75;;;;;;;22.19;50.45;100426.22;5094786;28;20029;-73
2021/06/10 10:52:38;;;;;;;;;;;;;;;22.58;50.08;100424.53;5095077;28;20507;-68
2021/06/10 10:55:18;;;;;;;2.72;2.20;;;;;;;22.86;49.89;100414.66;5096294;28;19917;-69
2021/06/10 10:57:45;;;;;;;4.10;2.63;;;;;;;23.24;50.10;100410.41;5094496;28;20037;-69
2021/06/10 11:00:13;;;;;;;6.38;2.70;;;;;;;23.63;49.65;100412.28;5082335;28;20043;-69
2021/06/10 11:02:47;;;;;;;7.70;2.70;;;;;;;24.30;50.92;100405.78;5075584;28;20025;-68
2021/06/10 11:05:15;;;;;;;4.57;2.53;;;;;;;24.91;49.13;100412.06;5075595;28;20025;-70
2021/06/10 11:07:40;;;;;;;5.82;2.72;;;;;;;24.94;46.80;100403.34;5057299;28;20037;-69
2021/06/10 11:10:10;;;;;;;6.97;2.88;;;;;;;24.99;46.54;100395.22;5074743;28;20029;-67
2021/06/10 11:12:45;;;;;;;2.92;2.30;;;;;;;24.91;45.59;100388.34;5073750;28;20710;-67
2021/06/10 11:15:16;;;;;;;4.20;1.77;;;;;;;25.14;46.44;100383.59;5074655;28;20107;-69
2021/06/10 11:17:45;;;;;;;3.85;1.88;;;;;;;25.35;44.88;100384.56;5074773;28;20808;-70
2021/06/10 11:20:13;;;;;;;3.55;2.03;;;;;;;25.48;44.34;100386.00;5073941;28;20478;-69
2021/06/10 11:22:49;;;;;;;4.30;1.80;;;;;;;25.68;44.58;100382.53;5073978;28;20100;-67
2021/06/10 11:25:23;;;;;;;4.55;1.85;;;;;;;26.23;45.22;100383.03;5075165;28;20025;-67
2021/06/10 11:27:49;;;;;;;2.85;1.55;;;;;;;26.52;43.73;100377.03;5074878;28;20049;-67
2021/06/10 11:30:17;;;;;;;3.22;1.60;;;;;;;26.67;42.76;100378.97;5075303;28;20029;-66
2021/06/10 11:33:09;;;;;;;2.38;1.42;;;;;;;26.95;43.20;100379.50;5074001;28;20033;-66
2021/06/10 11:35:55;;;;;;;3.35;1.40;;;;;;;27.52;42.44;100377.50;5075428;28;20040;-67
2021/06/10 11:38:26;;;;;;;3.50;1.50;;;;;;;27.49;40.00;100372.59;5074623;28;20032;-68
2021/06/10 11:40:55;;;;;;;2.83;1.40;;;;;;;27.47;39.81;100364.63;5074046;28;20032;-68
2021/06/10 11:43:20;;;;;;;3.53;1.40;;;;;;;27.64;39.34;100358.84;5075425;28;20033;-69
2021/06/10 11:45:47;;;;;;;3.20;1.50;;;;;;;27.79;39.32;100360.69;5044445;28;20029;-68
2021/06/10 11:48:12;;;;;;;4.65;1.42;;;;;;;28.10;39.29;100356.97;5090336;28;20025;-69
2021/06/10 11:50:39;;;;;;;3.55;1.48;;;;;;;28.24;38.40;100349.78;5090662;28;20355;-68
2021/06/10 11:53:17;;;;;;;1.70;1.02;;;;;;;28.12;36.78;100352.84;5073617;28;20025;-69
2021/06/10 11:55:43;;;;;;;2.50;1.38;;;;;;;27.94;36.72;100342.53;5074132;28;20033;-71
2021/06/10 11:58:09;;;;;;;1.63;1.20;;;;;;;27.90;36.38;100339.53;5074399;28;20044;-68
2021/06/10 12:00:42;;;;;;;3.22;1.40;;;;;;;27.79;35.82;100337.94;5074652;28;20508;-68
2021/06/10 12:03:12;;;;;;;3.10;2.33;;;;;;;27.58;35.21;100332.59;5073342;28;20057;-70
2021/06/10 12:05:50;;;;;;;3.20;1.30;;;;;;;27.58;35.71;100327.09;5074781;28;20044;-68
2021/06/10 12:08:19;;;;;;;2.67;1.40;;;;;;;27.67;35.57;100325.44;5074899;28;20040;-70
2021/06/10 12:10:52;;;;;;;5.47;1.40;;;;;;;27.80;35.64;100323.16;5074977;28;20111;-71
2021/06/10 12:13:32;;;;;;;2.35;1.38;;;;;;;27.83;35.34;100317.13;5073547;28;20090;-72
2021/06/10 12:16:00;;;;;;;2.05;1.40;;;;;;;28.00;35.53;100314.84;5074914;28;20036;-68
2021/06/10 12:18:26;;;;;;;2.85;1.40;;;;;;;28.08;34.59;100315.38;5073020;28;20033;-69
2021/06/10 12:20:53;;;;;;;2.70;1.30;;;;;;;28.02;34.21;100309.94;5073866;28;33187;-67
2021/06/10 12:23:26;;;;;;;3.00;1.48;;;;;;;27.92;33.68;100309.97;5072707;28;20626;-67
2021/06/10 12:26:05;;;;;;;1.70;1.08;;;;;;;27.98;34.29;100308.84;5074782;28;20604;-66
2021/06/10 12:28:37;;;;;;;3.22;1.27;;;;;;;28.09;34.25;100300.56;5073789;28;20076;-65
2021/06/10 12:31:16;;;;;;;10.27;1.58;;;;;;;28.17;33.31;100306.28;5074150;28;20040;-65
2021/06/10 12:33:49;;;;;;;3.88;1.45;;;;;;;27.93;32.92;100303.38;5073156;28;20061;-66
2021/06/10 12:36:18;;;;;;;2.97;1.23;;;;;;;27.86;32.70;100311.09;5072199;28;20037;-66
2021/06/10 12:38:45;;;;;;;4.00;1.10;;;;;;;27.64;32.62;100306.00;5073523;28;20552;-66
2021/06/10 12:41:13;;;;;;;3.33;1.40;;;;;;;27.50;32.97;100303.91;5071990;28;20080;-68
2021/06/10 12:43:38;;;;;;;2.45;1.30;;;;;;;27.56;33.01;100298.38;5073154;28;20028;-67
2021/06/10 12:46:04;;;;;;;3.13;1.58;;;;;;;27.67;32.71;100313.69;5072879;28;29173;-66
2021/06/10 12:48:30;;;;;;;2.83;2.30;;;;;;;27.80;33.29;100301.28;5073370;28;20036;-68
2021/06/10 12:51:25;;;;;;;2.75;1.40;;;;;;;27.81;31.99;100302.91;5075273;28;20421;-67
2021/06/10 12:54:17;;;;;;;4.20;1.50;;;;;;;27.86;32.90;100289.22;5076315;28;20029;-65
2021/06/10 12:56:43;;;;;;;3.88;1.70;;;;;;;28.18;33.19;100301.59;5076734;28;20048;-66
2021/06/10 12:59:09;;;;;;;5.05;1.58;;;;;;;28.28;32.27;100296.06;5077156;28;20068;-67
2021/06/10 13:01:34;;;;;;;5.88;1.30;;;;;;;28.15;31.83;100297.50;5077118;28;20613;-69
2021/06/10 13:04:00;;;;;;;5.97;1.40;;;;;;;27.94;31.74;100291.34;5075563;28;20060;-69
2021/06/10 13:06:25;;;;;;;6.13;1.55;;;;;;;28.06;32.41;100298.41;5074704;28;37942;-71
2021/06/10 13:39:01;;;;;;;4.18;2.08;;;;;;;25.55;32.87;100272.03;5147354;27;20335;-72
2021/06/10 13:41:28;;;;;;;3.28;2.10;;;;;;;25.75;33.27;100260.38;5150360;27;20451;-73
2021/06/10 13:43:54;;;;;;;2.42;1.73;;;;;;;25.94;33.57;100260.63;5150155;27;20876;-74
2021/06/10 13:46:19;;;;;;;2.30;1.70;;;;;;;26.08;33.43;100257.41;5151807;27;20031;-72
2021/06/10 13:48:45;;;;;;;4.57;1.95;;;;;;;25.98;33.06;100248.09;5151135;27;22152;-72
2021/06/10 13:51:10;;;;;;;2.60;1.77;;;;;;;25.96;32.93;100249.47;5151843;27;20038;-72
2021/06/10 13:53:36;;;;;;;3.67;2.00;;;;;;;25.87;32.81;100249.16;5151318;27;20542;-72
2021/06/10 13:56:02;;;;;;;3.17;1.60;;;;;;;25.52;32.62;100245.31;5150615;27;20042;-74
2021/06/10 13:58:27;;;;;;;5.18;2.05;;;;;;;25.32;33.55;100230.47;5125013;27;20036;-74
2021/06/10 14:00:53;;;;;;;3.35;2.30;;;;;;;25.32;33.89;100232.41;5131272;27;20020;-70
2021/06/10 14:03:21;;;;;;;3.50;2.28;;;;;;;25.38;34.30;100227.81;5132486;27;20085;-71
2021/06/10 14:05:46;;;;;;;4.35;2.30;;;;;;;25.32;34.21;100224.22;5130957;27;20032;-71
2021/06/10 14:08:11;;;;;;;4.53;2.17;;;;;;;25.22;34.46;100222.28;5130668;27;20024;-71
2021/06/10 14:10:37;;;;;;;3.33;2.20;;;;;;;25.11;34.59;100221.41;5117371;27;21756;-72
2021/06/10 14:13:02;;;;;;;4.85;2.30;;;;;;;24.90;34.40;100217.78;5108242;28;25246;-73
2021/06/10 14:15:28;;;;;;;4.25;2.10;;;;;;;24.71;34.63;100220.13;5109705;28;20036;-73
2021/06/10 14:17:53;;;;;;;4.43;2.20;;;;;;;24.66;34.97;100226.38;5107884;28;30605;-73
2021/06/10 14:20:18;;;;;;;6.65;2.38;;;;;;;24.72;35.94;100231.84;5109201;28;22358;-73
2021/06/10 14:22:44;;;;;;;4.72;2.70;;;;;;;24.76;35.91;100231.06;5107865;28;20024;-74
2021/06/10 14:25:10;;;;;;;6.57;3.33;;;;;;;24.69;36.09;100226.91;5109485;27;24948;-74
2021/06/10 14:27:36;;;;;;;6.68;3.20;;;;;;;24.51;36.11;100231.69;5091433;28;20039;-72
2021/06/10 14:30:13;;;;;;;6.40;2.95;;;;;;;24.33;36.56;100233.75;5109900;27;20119;-74
2021/06/10 14:32:39;;;;;;;4.53;2.60;;;;;;;24.08;37.81;100230.81;5110134;27;20044;-75
2021/06/10 14:35:05;;;;;;;5.82;2.65;;;;;;;24.01;37.95;100227.50;5107855;28;20037;-74
2021/06/10 14:37:31;;;;;;;5.78;3.30;;;;;;;23.99;39.13;100234.03;5090749;28;20044;-75
2021/06/10 14:39:57;;;;;;;4.47;3.30;;;;;;;23.85;38.74;100240.91;5109608;28;20362;-75
2021/06/10 14:42:24;;;;;;;7.80;3.45;;;;;;;23.77;39.45;100238.66;5109273;27;20067;-78
2021/06/10 14:44:49;;;;;;;4.75;2.72;;;;;;;23.77;40.21;100225.91;5109524;27;20040;-76
2021/06/10 14:47:15;;;;;;;5.72;3.53;;;;;;;23.80;40.40;100219.13;5108235;28;41273;-76
2021/06/10 14:49:40;;;;;;;8.05;3.47;;;;;;;23.66;40.17;100224.97;5099265;28;29102;-72
2021/06/10 14:52:06;;;;;;;5.88;3.80;;;;;;;23.32;40.35;100217.00;5095047;28;26607;-71
2021/06/10 14:54:31;;;;;;;8.63;4.15;;;;;;;23.01;40.80;100221.22;5095559;28;20179;-71
2021/06/10 14:56:56;;;;;;;5.60;3.88;;;;;;;22.74;41.89;100232.00;5094498;28;33964;-74
2021/06/10 14:59:22;;;;;;;5.68;3.38;;;;;;;22.47;42.38;100225.38;5076840;28;20103;-72
2021/06/10 15:01:47;;;;;;;7.72;3.80;;;;;;;22.31;43.00;100227.00;5077414;28;20453;-73
2021/06/10 15:04:13;;;;;;;4.72;3.35;;;;;;;22.15;43.41;100227.81;5094224;28;20032;-72
2021/06/10 15:06:38;;;;;;;8.07;3.65;;;;;;;21.98;44.18;100217.78;5095613;28;20138;-70
2021/06/10 15:09:04;;;;;;;4.72;3.35;;;;;;;21.85;45.65;100215.38;5095356;28;20037;-75
2021/06/10 15:11:29;;;;;;;5.95;2.65;;;;;;;21.78;45.32;100193.84;5094569;28;20020;-74
2021/06/10 15:13:55;;;;;;;5.40;2.42;;;;;;;21.69;45.72;100198.00;5095384;28;20032;-72
2021/06/10 15:16:20;;;;;;;3.28;1.80;;;;;;;21.72;45.46;100194.00;5095021;28;20020;-74
2021/06/10 15:18:46;;;;;;;4.88;2.20;;;;;;;21.80;46.26;100190.88;5094992;28;20028;-73
2021/06/10 15:21:12;;;;;;;4.38;2.40;;;;;;;22.07;47.03;100184.81;5094536;28;20098;-72
2021/06/10 15:23:37;;;;;;;3.53;2.13;;;;;;;22.25;46.20;100183.75;5095333;28;20405;-74
2021/06/10 15:26:03;;;;;;;4.18;2.30;;;;;;;22.34;46.76;100189.59;5093138;28;29873;-73
2021/06/10 15:28:30;;;;;;;3.45;2.17;;;;;;;22.44;46.70;100190.59;5095266;28;20114;-73
2021/06/10 15:30:55;;;;;;;2.70;2.25;;;;;;;22.54;46.47;100198.06;5094836;28;20977;-75
2021/06/10 15:33:21;;;;;;;3.08;2.30;;;;;;;22.60;46.68;100201.66;5093546;28;20036;-73
2021/06/10 15:35:46;;;;;;;3.13;2.45;;;;;;;22.54;46.40;100199.94;5095633;28;20024;-73
2021/06/10 15:38:12;;;;;;;3.30;2.70;;;;;;;22.45;46.38;100205.78;5092564;28;34127;-73
2021/06/10 15:40:37;;;;;;;4.20;3.30;;;;;;;22.35;46.35;100194.78;5107954;28;33540;-72
2021/06/10 15:43:02;;;;;;;7.90;3.40;;;;;;;22.25;46.61;100197.31;5112529;28;25413;-73
2021/06/10 15:45:28;;;;;;;4.43;2.80;;;;;;;22.12;46.88;100199.28;5115528;28;20146;-74
2021/06/10 15:47:54;;;;;;;5.70;3.38;;;;;;;22.07;47.36;100198.38;5116676;27;20836;-74
2021/06/10 15:50:19;;;;;;;4.70;3.10;;;;;;;22.09;47.97;100198.94;5084534;28;20078;-73
2021/06/10 15:52:45;;;;;;;9.98;3.20;;;;;;;22.05;47.97;100201.34;5094771;28;20028;-67
2021/06/10 15:55:10;;;;;;;5.25;3.28;;;;;;;22.00;49.04;100203.16;5094069;28;36061;-67
2021/06/10 15:57:35;;;;;;;8.27;3.10;;;;;;;21.91;48.99;100205.44;5094061;28;29860;-67
2021/06/10 16:00:01;;;;;;;8.25;4.10;;;;;;;21.82;49.17;100213.16;5091546;28;40421;-68
2021/06/10 16:02:26;;;;;;;4.80;3.50;;;;;;;21.76;50.47;100200.56;5092936;28;20079;-69
2021/06/10 16:04:52;;;;;;;5.68;3.75;;;;;;;21.78;51.41;100198.44;5094210;28;20032;-65
2021/06/10 16:07:19;;;;;;;9.02;3.75;;;;;;;21.75;50.87;100193.53;5093716;28;35256;-68
2021/06/10 16:09:44;;;;;;;6.72;3.88;;;;;;;21.81;51.47;100200.66;5094594;28;20996;-67
2021/06/10 16:12:10;;;;;;;6.60;4.88;;;;;;;21.85;51.34;100192.88;5092925;28;20033;-70
2021/06/10 16:14:35;;;;;;;5.85;3.85;;;;;;;21.85;51.70;100188.25;5108090;28;20051;-69
2021/06/10 16:17:02;;;;;;;4.97;3.50;;;;;;;21.81;52.14;100181.69;5116066;28;20043;-69
2021/06/10 16:19:29;;;;;;;4.85;3.53;;;;;;;21.73;52.39;100182.09;5114623;28;20460;-70
2021/06/10 16:21:55;;;;;;;6.55;3.70;;;;;;;21.66;52.15;100178.72;5115397;27;20032;-65
2021/06/10 16:24:21;;;;;;;5.43;3.30;;;;;;;21.68;52.60;100179.28;5097978;28;20031;-73